sensor_id;sensor_type;location;lat;lon;timestamp;pressure;altitude;pressure_sealevel;temperature;humidity
66547;BME280;53400;50.364;14.874;2023-01-26T00:01:08;99274.09;;;-0.26;100.00
66547;BME280;53400;50.364;14.874;2023-01-26T00:03:36;99277.59;;;-0.59;100.00
66547;BME280;53400;50.364;14.874;2023-01-26T00:06:03;99273.44;;;-0.62;100.00
66547;BME280;53400;50.364;14.874;2023-01-26T00:08:29;99278.25;;;-0.57;100.00
66547;BME280;53400;50.364;14.874;2023-01-26T00:10:55;99269.44;;;-0.40;100.00
66547;BME280;53400;50.364;14.874;2023-01-26T00:13:21;99267.63;;;-0.74;100.00
66547;BME280;53400;50.364;14.874;2023-01-26T00:15:47;99273.50;;;-0.54;100.00
66547;BME280;53400;50.364;14.874;2023-01-26T00:18:13;99266.56;;;-0.63;100.00
66547;BME280;53400;50.364;14.874;2023-01-26T00:20:41;99270.78;;;-0.70;100.00
66547;BME280;53400;50.364;14.874;2023-01-26T00:23:07;99264.59;;;-0.61;100.00
66547;BME280;53400;50.364;14.874;2023-01-26T00:25:33;99275.03;;;-0.77;100.00
66547;BME280;53400;50.364;14.874;2023-01-26T00:27:59;99265.59;;;-0.54;100.00
66547;BME280;53400;50.364;14.874;2023-01-26T00:30:25;99260.22;;;-0.78;100.00
66547;BME280;53400;50.364;14.874;2023-01-26T00:32:50;99256.47;;;-0.67;100.00
66547;BME280;53400;50.364;14.874;2023-01-26T00:35:16;99257.63;;;-0.70;100.00
66547;BME280;53400;50.364;14.874;2023-01-26T00:37:43;99257.03;;;-0.64;100.00
66547;BME280;53400;50.364;14.874;2023-01-26T00:40:10;99248.16;;;-0.89;100.00
66547;BME280;53400;50.364;14.874;2023-01-26T00:42:36;99252.22;;;-0.95;100.00
66547;BME280;53400;50.364;14.874;2023-01-26T00:45:03;99252.59;;;-0.89;100.00
66547;BME280;53400;50.364;14.874;2023-01-26T00:47:28;99250.28;;;-0.93;100.00
66547;BME280;53400;50.364;14.874;2023-01-26T00:49:54;99253.09;;;-0.86;100.00
66547;BME280;53400;50.364;14.874;2023-01-26T00:52:20;99248.47;;;-0.92;100.00
66547;BME280;53400;50.364;14.874;2023-01-26T00:54:47;99249.91;;;-0.98;100.00
66547;BME280;53400;50.364;14.874;2023-01-26T00:57:13;99254.34;;;-0.98;100.00
66547;BME280;53400;50.364;14.874;2023-01-26T00:59:39;99260.97;;;-0.94;100.00
66547;BME280;53400;50.364;14.874;2023-01-26T01:02:05;99259.44;;;-0.71;100.00
66547;BME280;53400;50.364;14.874;2023-01-26T01:04:31;99253.00;;;-0.76;100.00
66547;BME280;53400;50.364;14.874;2023-01-26T01:06:57;99249.72;;;-0.78;100.00
66547;BME280;53400;50.364;14.874;2023-01-26T01:09:23;99244.47;;;-0.70;100.00
66547;BME280;53400;50.364;14.874;2023-01-26T01:11:51;99249.78;;;-0.96;100.00
66547;BME280;53400;50.364;14.874;2023-01-26T01:14:17;99246.09;;;-0.77;100.00
66547;BME280;53400;50.364;14.874;2023-01-26T01:16:42;99241.03;;;-0.71;100.00
66547;BME280;53400;50.364;14.874;2023-01-26T01:19:12;99244.50;;;-0.62;100.00
66547;BME280;53400;50.364;14.874;2023-01-26T01:21:38;99238.25;;;-0.95;100.00
66547;BME280;53400;50.364;14.874;2023-01-26T01:24:05;99234.94;;;-1.05;100.00
66547;BME280;53400;50.364;14.874;2023-01-26T01:26:31;99242.72;;;-0.96;100.00
66547;BME280;53400;50.364;14.874;2023-01-26T01:28:59;99243.66;;;-0.71;100.00
66547;BME280;53400;50.364;14.874;2023-01-26T01:31:25;99235.50;;;-0.94;100.00
66547;BME280;53400;50.364;14.874;2023-01-26T01:33:52;99236.47;;;-0.95;100.00
66547;BME280;53400;50.364;14.874;2023-01-26T01:36:18;99241.00;;;-1.05;100.00
66547;BME280;53400;50.364;14.874;2023-01-26T01:38:45;99227.59;;;-0.94;100.00
66547;BME280;53400;50.364;14.874;2023-01-26T01:41:12;99232.75;;;-1.10;100.00
66547;BME280;53400;50.364;14.874;2023-01-26T01:43:39;99233.06;;;-1.13;100.00
66547;BME280;53400;50.364;14.874;2023-01-26T01:46:12;99226.41;;;-0.99;100.00
66547;BME280;53400;50.364;14.874;2023-01-26T01:48:47;99226.22;;;-0.72;100.00
66547;BME280;53400;50.364;14.874;2023-01-26T01:51:18;99213.66;;;-0.43;100.00
66547;BME280;53400;50.364;14.874;2023-01-26T01:53:47;99216.28;;;-0.86;100.00
66547;BME280;53400;50.364;14.874;2023-01-26T01:56:17;99216.78;;;-0.82;100.00
66547;BME280;53400;50.364;14.874;2023-01-26T01:58:47;99210.28;;;-0.70;100.00
66547;BME280;53400;50.364;14.874;2023-01-26T02:01:16;99211.75;;;-0.76;100.00
66547;BME280;53400;50.364;14.874;2023-01-26T02:03:43;99203.53;;;-0.73;100.00
66547;BME280;53400;50.364;14.874;2023-01-26T02:06:13;99202.59;;;-0.55;100.00
66547;BME280;53400;50.364;14.874;2023-01-26T02:08:43;99208.28;;;-0.26;100.00
66547;BME280;53400;50.364;14.874;2023-01-26T02:11:11;99193.44;;;-0.51;100.00
66547;BME280;53400;50.364;14.874;2023-01-26T02:13:40;99196.50;;;-0.98;100.00
66547;BME280;53400;50.364;14.874;2023-01-26T02:16:06;99185.50;;;-1.02;100.00
66547;BME280;53400;50.364;14.874;2023-01-26T02:18:33;99189.06;;;-1.11;100.00
66547;BME280;53400;50.364;14.874;2023-01-26T02:21:01;99192.47;;;-1.19;100.00
66547;BME280;53400;50.364;14.874;2023-01-26T02:23:38;99195.94;;;-1.18;100.00
66547;BME280;53400;50.364;14.874;2023-01-26T02:26:12;99189.41;;;-1.06;100.00
66547;BME280;53400;50.364;14.874;2023-01-26T02:28:39;99188.28;;;-1.03;100.00
66547;BME280;53400;50.364;14.874;2023-01-26T02:31:06;99186.78;;;-1.06;100.00
66547;BME280;53400;50.364;14.874;2023-01-26T02:33:33;99184.72;;;-0.86;100.00
66547;BME280;53400;50.364;14.874;2023-01-26T02:35:59;99187.34;;;-0.94;100.00
66547;BME280;53400;50.364;14.874;2023-01-26T02:38:30;99182.31;;;-1.13;100.00
66547;BME280;53400;50.364;14.874;2023-01-26T02:41:01;99183.44;;;-1.16;100.00
66547;BME280;53400;50.364;14.874;2023-01-26T02:43:30;99178.59;;;-1.29;100.00
66547;BME280;53400;50.364;14.874;2023-01-26T02:45:56;99170.06;;;-1.31;100.00
66547;BME280;53400;50.364;14.874;2023-01-26T02:48:22;99169.34;;;-1.15;100.00
66547;BME280;53400;50.364;14.874;2023-01-26T02:51:07;99163.56;;;-1.19;100.00
66547;BME280;53400;50.364;14.874;2023-01-26T02:53:33;99163.88;;;-1.22;100.00
66547;BME280;53400;50.364;14.874;2023-01-26T02:55:59;99167.97;;;-1.19;100.00
66547;BME280;53400;50.364;14.874;2023-01-26T02:58:25;99160.69;;;-1.33;100.00
66547;BME280;53400;50.364;14.874;2023-01-26T03:00:52;99161.44;;;-1.15;100.00
66547;BME280;53400;50.364;14.874;2023-01-26T03:03:20;99145.03;;;-1.09;100.00
66547;BME280;53400;50.364;14.874;2023-01-26T03:05:47;99151.03;;;-0.90;100.00
66547;BME280;53400;50.364;14.874;2023-01-26T03:08:13;99148.06;;;-0.96;100.00
66547;BME280;53400;50.364;14.874;2023-01-26T03:10:39;99139.50;;;-0.98;100.00
66547;BME280;53400;50.364;14.874;2023-01-26T03:13:05;99138.44;;;-0.79;100.00
66547;BME280;53400;50.364;14.874;2023-01-26T03:15:31;99137.41;;;-0.94;100.00
66547;BME280;53400;50.364;14.874;2023-01-26T03:18:11;99137.16;;;-1.09;100.00
66547;BME280;53400;50.364;14.874;2023-01-26T03:21:00;99136.84;;;-0.98;100.00
66547;BME280;53400;50.364;14.874;2023-01-26T03:23:46;99130.56;;;-1.13;100.00
66547;BME280;53400;50.364;14.874;2023-01-26T03:26:31;99128.78;;;-1.12;100.00
66547;BME280;53400;50.364;14.874;2023-01-26T03:29:16;99123.19;;;-1.09;100.00
66547;BME280;53400;50.364;14.874;2023-01-26T03:31:42;99115.97;;;-1.07;100.00
66547;BME280;53400;50.364;14.874;2023-01-26T03:34:09;99116.94;;;-1.08;100.00
66547;BME280;53400;50.364;14.874;2023-01-26T03:36:35;99113.63;;;-1.19;100.00
66547;BME280;53400;50.364;14.874;2023-01-26T03:39:02;99117.28;;;-1.11;100.00
66547;BME280;53400;50.364;14.874;2023-01-26T03:41:28;99114.16;;;-1.07;100.00
66547;BME280;53400;50.364;14.874;2023-01-26T03:44:13;99104.03;;;-0.85;100.00
66547;BME280;53400;50.364;14.874;2023-01-26T03:46:57;99110.09;;;-0.93;100.00
66547;BME280;53400;50.364;14.874;2023-01-26T03:49:43;99105.53;;;-0.83;100.00
66547;BME280;53400;50.364;14.874;2023-01-26T03:52:27;99108.50;;;-0.78;100.00
66547;BME280;53400;50.364;14.874;2023-01-26T03:55:14;99111.50;;;-0.73;100.00
66547;BME280;53400;50.364;14.874;2023-01-26T03:57:58;99117.91;;;-0.59;100.00
66547;BME280;53400;50.364;14.874;2023-01-26T04:00:24;99117.63;;;-0.48;100.00
66547;BME280;53400;50.364;14.874;2023-01-26T04:02:50;99109.25;;;-1.02;100.00
66547;BME280;53400;50.364;14.874;2023-01-26T04:05:37;99100.81;;;-1.13;100.00
66547;BME280;53400;50.364;14.874;2023-01-26T04:08:21;99096.22;;;-0.61;100.00
66547;BME280;53400;50.364;14.874;2023-01-26T04:10:52;99102.66;;;-0.31;100.00
66547;BME280;53400;50.364;14.874;2023-01-26T04:13:19;99103.19;;;-0.03;100.00
66547;BME280;53400;50.364;14.874;2023-01-26T04:16:04;99104.34;;;-0.05;100.00
66547;BME280;53400;50.364;14.874;2023-01-26T04:18:49;99098.03;;;-0.53;100.00
66547;BME280;53400;50.364;14.874;2023-01-26T04:21:35;99101.84;;;-0.39;100.00
66547;BME280;53400;50.364;14.874;2023-01-26T04:24:03;99102.81;;;-0.57;100.00
66547;BME280;53400;50.364;14.874;2023-01-26T04:26:35;99095.09;;;-0.26;100.00
66547;BME280;53400;50.364;14.874;2023-01-26T04:29:02;99094.63;;;-0.45;100.00
66547;BME280;53400;50.364;14.874;2023-01-26T04:31:29;99099.00;;;-0.62;100.00
66547;BME280;53400;50.364;14.874;2023-01-26T04:33:55;99090.31;;;-0.55;100.00
66547;BME280;53400;50.364;14.874;2023-01-26T04:36:21;99092.63;;;-0.35;100.00
66547;BME280;53400;50.364;14.874;2023-01-26T04:38:48;99082.75;;;-0.41;100.00
66547;BME280;53400;50.364;14.874;2023-01-26T04:41:15;99077.66;;;-0.35;100.00
66547;BME280;53400;50.364;14.874;2023-01-26T04:43:41;99082.44;;;-0.55;100.00
66547;BME280;53400;50.364;14.874;2023-01-26T04:46:07;99085.72;;;-0.44;100.00
66547;BME280;53400;50.364;14.874;2023-01-26T04:48:33;99072.72;;;-0.38;100.00
66547;BME280;53400;50.364;14.874;2023-01-26T04:51:05;99075.19;;;-0.53;100.00
66547;BME280;53400;50.364;14.874;2023-01-26T04:53:31;99069.09;;;-0.37;100.00
66547;BME280;53400;50.364;14.874;2023-01-26T04:55:59;99078.94;;;-0.55;100.00
66547;BME280;53400;50.364;14.874;2023-01-26T04:58:25;99075.53;;;-0.48;100.00
66547;BME280;53400;50.364;14.874;2023-01-26T05:00:52;99068.44;;;-0.31;100.00
66547;BME280;53400;50.364;14.874;2023-01-26T05:03:18;99075.53;;;-0.15;100.00
66547;BME280;53400;50.364;14.874;2023-01-26T05:05:47;99077.81;;;-0.28;100.00
66547;BME280;53400;50.364;14.874;2023-01-26T05:08:13;99079.63;;;-0.37;100.00
66547;BME280;53400;50.364;14.874;2023-01-26T05:10:39;99088.22;;;-0.27;100.00
66547;BME280;53400;50.364;14.874;2023-01-26T05:13:06;99076.16;;;-0.54;100.00
66547;BME280;53400;50.364;14.874;2023-01-26T05:15:32;99070.88;;;-0.62;100.00
66547;BME280;53400;50.364;14.874;2023-01-26T05:17:58;99081.09;;;-0.59;100.00
66547;BME280;53400;50.364;14.874;2023-01-26T05:20:24;99079.59;;;-0.70;100.00
66547;BME280;53400;50.364;14.874;2023-01-26T05:22:50;99079.19;;;-0.99;100.00
66547;BME280;53400;50.364;14.874;2023-01-26T05:25:16;99081.00;;;-0.92;100.00
66547;BME280;53400;50.364;14.874;2023-01-26T05:27:42;99081.84;;;-0.91;100.00
66547;BME280;53400;50.364;14.874;2023-01-26T05:30:11;99072.34;;;-0.67;100.00
66547;BME280;53400;50.364;14.874;2023-01-26T05:32:37;99073.88;;;-0.49;100.00
66547;BME280;53400;50.364;14.874;2023-01-26T05:35:04;99079.13;;;-0.40;100.00
66547;BME280;53400;50.364;14.874;2023-01-26T05:37:30;99072.72;;;-0.46;100.00
66547;BME280;53400;50.364;14.874;2023-01-26T05:39:56;99077.66;;;-0.18;100.00
66547;BME280;53400;50.364;14.874;2023-01-26T05:42:22;99071.56;;;-0.19;100.00
66547;BME280;53400;50.364;14.874;2023-01-26T05:44:48;99072.56;;;-0.28;100.00
66547;BME280;53400;50.364;14.874;2023-01-26T05:47:16;99067.44;;;-0.46;100.00
66547;BME280;53400;50.364;14.874;2023-01-26T05:49:42;99071.59;;;-0.27;100.00
66547;BME280;53400;50.364;14.874;2023-01-26T05:52:08;99061.19;;;-0.61;100.00
66547;BME280;53400;50.364;14.874;2023-01-26T05:54:35;99066.81;;;-0.32;100.00
66547;BME280;53400;50.364;14.874;2023-01-26T05:57:01;99064.44;;;0.86;100.00
66547;BME280;53400;50.364;14.874;2023-01-26T05:59:27;99074.47;;;0.35;100.00
66547;BME280;53400;50.364;14.874;2023-01-26T06:01:54;99059.75;;;-0.23;100.00
66547;BME280;53400;50.364;14.874;2023-01-26T06:04:22;99054.31;;;-0.38;100.00
66547;BME280;53400;50.364;14.874;2023-01-26T06:06:47;99059.25;;;-0.27;100.00
66547;BME280;53400;50.364;14.874;2023-01-26T06:09:14;99051.84;;;-0.15;100.00
66547;BME280;53400;50.364;14.874;2023-01-26T06:11:40;99054.97;;;-0.44;100.00
66547;BME280;53400;50.364;14.874;2023-01-26T06:14:06;99055.78;;;-0.52;100.00
66547;BME280;53400;50.364;14.874;2023-01-26T06:16:32;99052.50;;;-0.37;100.00
66547;BME280;53400;50.364;14.874;2023-01-26T06:18:58;99057.09;;;-0.31;100.00
66547;BME280;53400;50.364;14.874;2023-01-26T06:21:25;99065.31;;;-0.10;100.00
66547;BME280;53400;50.364;14.874;2023-01-26T06:23:51;99060.06;;;-0.10;100.00
66547;BME280;53400;50.364;14.874;2023-01-26T06:26:17;99054.63;;;-0.25;100.00
66547;BME280;53400;50.364;14.874;2023-01-26T06:28:43;99047.06;;;-0.11;100.00
66547;BME280;53400;50.364;14.874;2023-01-26T06:31:09;99047.56;;;-0.40;100.00
66547;BME280;53400;50.364;14.874;2023-01-26T06:33:39;99051.50;;;-0.61;100.00
66547;BME280;53400;50.364;14.874;2023-01-26T06:36:07;99052.16;;;-0.59;100.00
66547;BME280;53400;50.364;14.874;2023-01-26T06:38:36;99042.59;;;-0.84;100.00
66547;BME280;53400;50.364;14.874;2023-01-26T06:41:04;99050.34;;;-0.58;100.00
66547;BME280;53400;50.364;14.874;2023-01-26T06:43:30;99052.81;;;-0.65;100.00
66547;BME280;53400;50.364;14.874;2023-01-26T06:45:56;99052.16;;;-0.51;100.00
66547;BME280;53400;50.364;14.874;2023-01-26T06:48:23;99047.22;;;-0.54;100.00
66547;BME280;53400;50.364;14.874;2023-01-26T06:50:50;99041.31;;;-0.48;100.00
66547;BME280;53400;50.364;14.874;2023-01-26T06:53:25;99045.59;;;-0.38;100.00
66547;BME280;53400;50.364;14.874;2023-01-26T06:55:55;99051.16;;;-0.74;100.00
66547;BME280;53400;50.364;14.874;2023-01-26T06:58:21;99048.16;;;-0.79;100.00
66547;BME280;53400;50.364;14.874;2023-01-26T07:00:47;99050.16;;;-0.65;100.00
66547;BME280;53400;50.364;14.874;2023-01-26T07:03:13;99047.25;;;-0.45;100.00
66547;BME280;53400;50.364;14.874;2023-01-26T07:05:39;99056.78;;;-0.61;100.00
66547;BME280;53400;50.364;14.874;2023-01-26T07:08:05;99059.41;;;-0.28;100.00
66547;BME280;53400;50.364;14.874;2023-01-26T07:10:33;99059.06;;;-0.58;100.00
66547;BME280;53400;50.364;14.874;2023-01-26T07:13:02;99054.81;;;-0.18;100.00
66547;BME280;53400;50.364;14.874;2023-01-26T07:15:28;99056.03;;;0.35;100.00
66547;BME280;53400;50.364;14.874;2023-01-26T07:17:55;99056.72;;;0.21;100.00
66547;BME280;53400;50.364;14.874;2023-01-26T07:20:21;99052.16;;;-0.10;100.00
66547;BME280;53400;50.364;14.874;2023-01-26T07:22:47;99057.94;;;-0.14;100.00
66547;BME280;53400;50.364;14.874;2023-01-26T07:25:14;99054.13;;;-0.28;100.00
66547;BME280;53400;50.364;14.874;2023-01-26T07:27:40;99049.69;;;-0.28;100.00
66547;BME280;53400;50.364;14.874;2023-01-26T07:30:09;99055.59;;;-0.66;100.00
66547;BME280;53400;50.364;14.874;2023-01-26T07:32:35;99053.75;;;-0.82;100.00
66547;BME280;53400;50.364;14.874;2023-01-26T07:35:01;99055.91;;;-0.61;100.00
66547;BME280;53400;50.364;14.874;2023-01-26T07:37:27;99047.25;;;-0.45;100.00
66547;BME280;53400;50.364;14.874;2023-01-26T07:39:53;99052.50;;;-0.29;100.00
66547;BME280;53400;50.364;14.874;2023-01-26T07:42:19;99047.56;;;-0.57;100.00
66547;BME280;53400;50.364;14.874;2023-01-26T07:44:45;99051.00;;;-0.64;100.00
66547;BME280;53400;50.364;14.874;2023-01-26T07:47:12;99048.56;;;-0.41;100.00
66547;BME280;53400;50.364;14.874;2023-01-26T07:49:39;99049.56;;;-0.42;100.00
66547;BME280;53400;50.364;14.874;2023-01-26T07:52:05;99049.56;;;-0.42;100.00
66547;BME280;53400;50.364;14.874;2023-01-26T07:54:31;99046.25;;;-0.44;100.00
66547;BME280;53400;50.364;14.874;2023-01-26T07:56:57;99044.28;;;-0.42;100.00
66547;BME280;53400;50.364;14.874;2023-01-26T07:59:23;99052.50;;;-0.37;100.00
66547;BME280;53400;50.364;14.874;2023-01-26T08:01:49;99054.16;;;-0.36;100.00
66547;BME280;53400;50.364;14.874;2023-01-26T08:04:17;99048.56;;;-0.33;100.00
66547;BME280;53400;50.364;14.874;2023-01-26T08:06:43;99045.94;;;-0.33;100.00
66547;BME280;53400;50.364;14.874;2023-01-26T08:09:09;99046.88;;;-0.10;100.00
66547;BME280;53400;50.364;14.874;2023-01-26T08:11:36;99046.75;;;-0.08;100.00
66547;BME280;53400;50.364;14.874;2023-01-26T08:14:02;99048.53;;;-0.01;100.00
66547;BME280;53400;50.364;14.874;2023-01-26T08:16:28;99060.63;;;0.50;100.00
66547;BME280;53400;50.364;14.874;2023-01-26T08:18:53;99053.44;;;0.19;100.00
66547;BME280;53400;50.364;14.874;2023-01-26T08:21:21;99053.75;;;0.24;100.00
66547;BME280;53400;50.364;14.874;2023-01-26T08:23:47;99054.03;;;0.45;100.00
66547;BME280;53400;50.364;14.874;2023-01-26T08:26:13;99054.00;;;0.62;100.00
66547;BME280;53400;50.364;14.874;2023-01-26T08:28:40;99048.47;;;0.32;100.00
66547;BME280;53400;50.364;14.874;2023-01-26T08:31:08;99059.13;;;0.95;100.00
66547;BME280;53400;50.364;14.874;2023-01-26T08:33:36;99045.38;;;0.76;100.00
66547;BME280;53400;50.364;14.874;2023-01-26T08:36:03;99056.16;;;0.50;100.00
66547;BME280;53400;50.364;14.874;2023-01-26T08:38:31;99049.75;;;0.53;100.00
66547;BME280;53400;50.364;14.874;2023-01-26T08:40:57;99046.75;;;0.00;100.00
66547;BME280;53400;50.364;14.874;2023-01-26T08:43:23;99038.34;;;-0.12;100.00
66547;BME280;53400;50.364;14.874;2023-01-26T08:45:49;99028.63;;;-0.19;100.00
66547;BME280;53400;50.364;14.874;2023-01-26T08:48:15;99043.09;;;-0.15;100.00
66547;BME280;53400;50.364;14.874;2023-01-26T08:50:41;99044.94;;;-0.08;100.00
66547;BME280;53400;50.364;14.874;2023-01-26T08:53:07;99045.56;;;0.03;100.00
66547;BME280;53400;50.364;14.874;2023-01-26T08:55:34;99051.34;;;0.06;100.00
66547;BME280;53400;50.364;14.874;2023-01-26T08:58:00;99049.53;;;-0.02;100.00
66547;BME280;53400;50.364;14.874;2023-01-26T09:00:27;99051.50;;;-0.04;100.00
66547;BME280;53400;50.364;14.874;2023-01-26T09:02:57;99051.19;;;-0.09;100.00
66547;BME280;53400;50.364;14.874;2023-01-26T09:05:24;99042.94;;;-0.14;100.00
66547;BME280;53400;50.364;14.874;2023-01-26T09:07:50;99044.59;;;0.04;100.00
66547;BME280;53400;50.364;14.874;2023-01-26T09:10:16;99053.13;;;0.06;100.00
66547;BME280;53400;50.364;14.874;2023-01-26T09:12:43;99043.78;;;0.03;100.00
66547;BME280;53400;50.364;14.874;2023-01-26T09:15:10;99050.34;;;-0.01;100.00
66547;BME280;53400;50.364;14.874;2023-01-26T09:17:36;99042.63;;;-0.03;100.00
66547;BME280;53400;50.364;14.874;2023-01-26T09:20:02;99046.88;;;0.07;100.00
66547;BME280;53400;50.364;14.874;2023-01-26T09:22:28;99045.06;;;0.07;100.00
66547;BME280;53400;50.364;14.874;2023-01-26T09:24:55;99043.25;;;0.16;100.00
66547;BME280;53400;50.364;14.874;2023-01-26T09:27:21;99048.19;;;0.19;100.00
66547;BME280;53400;50.364;14.874;2023-01-26T09:29:48;99047.53;;;0.17;100.00
66547;BME280;53400;50.364;14.874;2023-01-26T09:32:14;99056.03;;;0.35;100.00
66547;BME280;53400;50.364;14.874;2023-01-26T09:34:40;99049.09;;;0.42;100.00
66547;BME280;53400;50.364;14.874;2023-01-26T09:37:06;99042.03;;;0.43;100.00
66547;BME280;53400;50.364;14.874;2023-01-26T09:39:32;99044.72;;;1.05;100.00
66547;BME280;53400;50.364;14.874;2023-01-26T09:42:09;99038.19;;;0.54;100.00
66547;BME280;53400;50.364;14.874;2023-01-26T09:44:42;99036.69;;;0.59;100.00
66547;BME280;53400;50.364;14.874;2023-01-26T09:47:16;99040.34;;;0.50;100.00
66547;BME280;53400;50.364;14.874;2023-01-26T09:49:50;99034.50;;;0.23;100.00
66547;BME280;53400;50.364;14.874;2023-01-26T09:52:25;99030.25;;;0.62;100.00
66547;BME280;53400;50.364;14.874;2023-01-26T09:54:52;99027.59;;;1.01;100.00
66547;BME280;53400;50.364;14.874;2023-01-26T09:57:23;99038.78;;;1.03;99.35
66547;BME280;53400;50.364;14.874;2023-01-26T09:59:53;99029.69;;;0.43;100.00
66547;BME280;53400;50.364;14.874;2023-01-26T10:02:32;99029.94;;;0.57;100.00
66547;BME280;53400;50.364;14.874;2023-01-26T10:05:03;99029.06;;;0.73;100.00
66547;BME280;53400;50.364;14.874;2023-01-26T10:07:30;99028.13;;;0.57;100.00
66547;BME280;53400;50.364;14.874;2023-01-26T10:09:56;99030.25;;;0.62;100.00
66547;BME280;53400;50.364;14.874;2023-01-26T10:12:25;99027.03;;;0.43;100.00
66547;BME280;53400;50.364;14.874;2023-01-26T10:14:55;99028.69;;;0.36;100.00
66547;BME280;53400;50.364;14.874;2023-01-26T10:17:32;99020.66;;;0.30;100.00
66547;BME280;53400;50.364;14.874;2023-01-26T10:20:03;99022.25;;;0.39;100.00
66547;BME280;53400;50.364;14.874;2023-01-26T10:22:37;99022.31;;;0.31;100.00
66547;BME280;53400;50.364;14.874;2023-01-26T10:25:14;99021.31;;;0.32;100.00
66547;BME280;53400;50.364;14.874;2023-01-26T10:27:40;99023.09;;;0.39;100.00
66547;BME280;53400;50.364;14.874;2023-01-26T10:30:11;99022.41;;;0.45;100.00
66547;BME280;53400;50.364;14.874;2023-01-26T10:32:40;99023.00;;;0.16;100.00
66547;BME280;53400;50.364;14.874;2023-01-26T10:35:13;99021.97;;;0.26;100.00
66547;BME280;53400;50.364;14.874;2023-01-26T10:37:39;99025.50;;;0.02;100.00
66547;BME280;53400;50.364;14.874;2023-01-26T10:40:06;99022.00;;;0.17;100.00
66547;BME280;53400;50.364;14.874;2023-01-26T10:42:33;99024.16;;;0.14;100.00
66547;BME280;53400;50.364;14.874;2023-01-26T10:45:02;99008.81;;;0.17;100.00
66547;BME280;53400;50.364;14.874;2023-01-26T10:47:29;99010.34;;;0.04;100.00
66547;BME280;53400;50.364;14.874;2023-01-26T10:50:14;99014.41;;;0.22;100.00
66547;BME280;53400;50.364;14.874;2023-01-26T10:52:56;99017.59;;;0.02;100.00
66547;BME280;53400;50.364;14.874;2023-01-26T10:55:22;99017.72;;;0.08;100.00
66547;BME280;53400;50.364;14.874;2023-01-26T10:57:48;99009.69;;;-0.07;100.00
66547;BME280;53400;50.364;14.874;2023-01-26T11:00:22;99004.13;;;-0.28;100.00
66547;BME280;53400;50.364;14.874;2023-01-26T11:02:50;99008.25;;;-0.58;100.00
66547;BME280;53400;50.364;14.874;2023-01-26T11:05:22;99005.97;;;-0.45;100.00
66547;BME280;53400;50.364;14.874;2023-01-26T11:07:49;99002.31;;;-0.52;100.00
66547;BME280;53400;50.364;14.874;2023-01-26T11:10:22;98997.06;;;-0.28;100.00
66547;BME280;53400;50.364;14.874;2023-01-26T11:12:49;99004.47;;;-0.15;100.00
66547;BME280;53400;50.364;14.874;2023-01-26T11:15:17;99004.47;;;-0.15;100.00
66547;BME280;53400;50.364;14.874;2023-01-26T11:17:49;98997.25;;;-0.45;100.00
66547;BME280;53400;50.364;14.874;2023-01-26T11:20:50;98992.13;;;-0.72;100.00
66547;BME280;53400;50.364;14.874;2023-01-26T11:23:25;98983.91;;;-0.77;100.00
66547;BME280;53400;50.364;14.874;2023-01-26T11:28:52;98983.84;;;0.05;100.00
66547;BME280;53400;50.364;14.874;2023-01-26T11:31:30;98979.75;;;-0.06;100.00
66547;BME280;53400;50.364;14.874;2023-01-26T11:34:12;98987.50;;;-0.12;100.00
66547;BME280;53400;50.364;14.874;2023-01-26T11:36:50;98980.06;;;0.08;100.00
66547;BME280;53400;50.364;14.874;2023-01-26T11:39:22;98975.25;;;0.19;100.00
66547;BME280;53400;50.364;14.874;2023-01-26T11:42:02;98977.19;;;0.26;100.00
66547;BME280;53400;50.364;14.874;2023-01-26T11:44:47;98967.91;;;-0.10;100.00
66547;BME280;53400;50.364;14.874;2023-01-26T11:47:22;98972.41;;;-0.43;100.00
66547;BME280;53400;50.364;14.874;2023-01-26T11:50:05;98977.50;;;-0.41;100.00
66547;BME280;53400;50.364;14.874;2023-01-26T11:52:49;98976.31;;;-0.31;100.00
66547;BME280;53400;50.364;14.874;2023-01-26T11:55:27;98969.78;;;-0.51;100.00
66547;BME280;53400;50.364;14.874;2023-01-26T11:58:04;98965.84;;;-0.63;100.00
66547;BME280;53400;50.364;14.874;2023-01-26T12:00:38;98964.69;;;-0.53;100.00
66547;BME280;53400;50.364;14.874;2023-01-26T12:03:14;98960.72;;;-0.73;100.00
66547;BME280;53400;50.364;14.874;2023-01-26T12:05:44;98960.09;;;-0.42;100.00
66547;BME280;53400;50.364;14.874;2023-01-26T12:08:16;98955.47;;;-0.81;100.00
66547;BME280;53400;50.364;14.874;2023-01-26T12:10:49;98952.50;;;-0.62;100.00
66547;BME280;53400;50.364;14.874;2023-01-26T12:13:20;98936.09;;;-0.72;100.00
66547;BME280;53400;50.364;14.874;2023-01-26T12:15:54;98942.28;;;-0.40;100.00
66547;BME280;53400;50.364;14.874;2023-01-26T12:18:23;98930.91;;;-0.16;100.00
66547;BME280;53400;50.364;14.874;2023-01-26T12:20:59;98931.44;;;-0.37;100.00
66547;BME280;53400;50.364;14.874;2023-01-26T12:23:32;98929.69;;;0.11;100.00
66547;BME280;53400;50.364;14.874;2023-01-26T12:26:07;98923.28;;;0.05;100.00
66547;BME280;53400;50.364;14.874;2023-01-26T12:28:41;98933.94;;;0.12;100.00
66547;BME280;53400;50.364;14.874;2023-01-26T12:31:15;98924.34;;;-0.20;100.00
66547;BME280;53400;50.364;14.874;2023-01-26T12:33:43;98922.81;;;0.64;100.00
66547;BME280;53400;50.364;14.874;2023-01-26T12:36:19;98923.94;;;0.47;100.00
66547;BME280;53400;50.364;14.874;2023-01-26T12:39:04;98915.44;;;0.28;100.00
66547;BME280;53400;50.364;14.874;2023-01-26T12:41:40;98908.66;;;0.65;100.00
66547;BME280;53400;50.364;14.874;2023-01-26T12:44:27;98906.09;;;0.80;100.00
66547;BME280;53400;50.364;14.874;2023-01-26T12:47:00;98907.38;;;0.84;100.00
66547;BME280;53400;50.364;14.874;2023-01-26T12:49:29;98900.16;;;0.55;100.00
66547;BME280;53400;50.364;14.874;2023-01-26T12:52:01;98907.09;;;0.79;100.00
66547;BME280;53400;50.364;14.874;2023-01-26T12:54:35;98899.69;;;0.51;100.00
66547;BME280;53400;50.364;14.874;2023-01-26T12:57:05;98905.09;;;0.81;100.00